sensor_id;sensor_type;location;lat;lon;timestamp;pressure;altitude;pressure_sealevel;temperature;humidity
23427;BME280;41148;45.420;10.952;2023-03-12T00:02:16;99806.63;;;12.25;50.62
23427;BME280;41148;45.420;10.952;2023-03-12T00:04:43;99815.81;;;12.19;50.55
23427;BME280;41148;45.420;10.952;2023-03-12T00:07:11;99804.63;;;12.11;50.08
23427;BME280;41148;45.420;10.952;2023-03-12T00:09:38;99817.53;;;12.20;49.97
23427;BME280;41148;45.420;10.952;2023-03-12T00:12:06;99820.56;;;12.13;49.55
23427;BME280;41148;45.420;10.952;2023-03-12T00:14:33;99824.78;;;12.18;48.90
23427;BME280;41148;45.420;10.952;2023-03-12T00:17:01;99816.09;;;12.13;48.67
23427;BME280;41148;45.420;10.952;2023-03-12T00:19:28;99815.47;;;12.08;48.47
23427;BME280;41148;45.420;10.952;2023-03-12T00:21:56;99830.19;;;12.17;48.24
23427;BME280;41148;45.420;10.952;2023-03-12T00:24:23;99821.34;;;12.15;48.01
23427;BME280;41148;45.420;10.952;2023-03-12T00:26:50;99839.50;;;12.08;48.08
23427;BME280;41148;45.420;10.952;2023-03-12T00:29:18;99833.50;;;12.03;48.33
23427;BME280;41148;45.420;10.952;2023-03-12T00:31:45;99841.75;;;11.98;49.08
23427;BME280;41148;45.420;10.952;2023-03-12T00:37:13;99849.44;;;11.86;51.77
23427;BME280;41148;45.420;10.952;2023-03-12T00:39:41;99853.34;;;11.97;52.04
23427;BME280;41148;45.420;10.952;2023-03-12T00:42:08;99856.16;;;11.94;53.33
23427;BME280;41148;45.420;10.952;2023-03-12T00:44:36;99849.31;;;11.89;54.93
23427;BME280;41148;45.420;10.952;2023-03-12T00:47:03;99857.00;;;11.95;55.30
23427;BME280;41148;45.420;10.952;2023-03-12T00:49:31;99863.88;;;12.00;55.65
23427;BME280;41148;45.420;10.952;2023-03-12T00:51:58;99864.75;;;11.82;57.16
23427;BME280;41148;45.420;10.952;2023-03-12T00:54:26;99867.13;;;11.88;57.37
23427;BME280;41148;45.420;10.952;2023-03-12T00:56:53;99862.16;;;11.81;57.87
23427;BME280;41148;45.420;10.952;2023-03-12T00:59:21;99872.81;;;11.81;58.31
23427;BME280;41148;45.420;10.952;2023-03-12T01:01:48;99864.75;;;11.82;58.16
23427;BME280;41148;45.420;10.952;2023-03-12T01:04:16;99872.00;;;11.79;58.59
23427;BME280;41148;45.420;10.952;2023-03-12T01:06:44;99878.16;;;11.81;58.44
23427;BME280;41148;45.420;10.952;2023-03-12T01:09:11;99872.81;;;11.81;58.51
23427;BME280;41148;45.420;10.952;2023-03-12T01:11:39;99872.97;;;11.76;58.61
23427;BME280;41148;45.420;10.952;2023-03-12T01:14:07;99887.25;;;11.75;58.72
23427;BME280;41148;45.420;10.952;2023-03-12T01:16:35;99881.91;;;11.75;58.61
23427;BME280;41148;45.420;10.952;2023-03-12T01:19:03;99863.81;;;11.63;58.96
23427;BME280;41148;45.420;10.952;2023-03-12T01:21:31;99882.16;;;11.70;58.81
23427;BME280;41148;45.420;10.952;2023-03-12T01:23:58;99875.50;;;11.60;59.12
23427;BME280;41148;45.420;10.952;2023-03-12T01:26:26;99896.91;;;11.59;59.33
23427;BME280;41148;45.420;10.952;2023-03-12T01:28:54;99893.78;;;11.49;59.41
23427;BME280;41148;45.420;10.952;2023-03-12T01:31:22;99911.06;;;11.40;59.65
23427;BME280;41148;45.420;10.952;2023-03-12T01:33:50;99916.25;;;11.43;59.81
23427;BME280;41148;45.420;10.952;2023-03-12T01:36:21;99912.72;;;11.43;59.78
23427;BME280;41148;45.420;10.952;2023-03-12T01:38:51;99918.69;;;11.28;59.78
23427;BME280;41148;45.420;10.952;2023-03-12T01:41:19;99916.31;;;11.22;59.97
23427;BME280;41148;45.420;10.952;2023-03-12T01:43:48;99920.09;;;11.16;60.05
23427;BME280;41148;45.420;10.952;2023-03-12T01:49:07;99926.50;;;11.12;59.77
23427;BME280;41148;45.420;10.952;2023-03-12T01:51:47;99932.88;;;11.08;59.97
23427;BME280;41148;45.420;10.952;2023-03-12T01:54:40;99943.69;;;11.05;60.34
23427;BME280;41148;45.420;10.952;2023-03-12T01:57:12;99944.69;;;11.02;60.81
23427;BME280;41148;45.420;10.952;2023-03-12T01:59:45;99941.47;;;10.94;61.26
23427;BME280;41148;45.420;10.952;2023-03-12T02:02:14;99937.00;;;10.95;61.47
23427;BME280;41148;45.420;10.952;2023-03-12T02:04:42;99941.53;;;10.93;61.96
23427;BME280;41148;45.420;10.952;2023-03-12T02:07:13;99950.50;;;10.90;62.17
23427;BME280;41148;45.420;10.952;2023-03-12T02:09:46;99942.63;;;10.87;62.03
23427;BME280;41148;45.420;10.952;2023-03-12T02:12:15;99943.72;;;10.83;62.02
23427;BME280;41148;45.420;10.952;2023-03-12T02:14:43;99958.94;;;10.79;61.95
23427;BME280;41148;45.420;10.952;2023-03-12T02:17:10;99951.69;;;10.83;61.95
23427;BME280;41148;45.420;10.952;2023-03-12T02:22:21;99978.44;;;10.80;61.82
23427;BME280;41148;45.420;10.952;2023-03-12T02:24:58;99967.78;;;10.80;61.63
23427;BME280;41148;45.420;10.952;2023-03-12T02:27:35;99982.13;;;10.77;61.39
23427;BME280;41148;45.420;10.952;2023-03-12T02:30:04;99998.91;;;10.79;61.29
23427;BME280;41148;45.420;10.952;2023-03-12T02:32:35;99994.56;;;10.77;60.97
23427;BME280;41148;45.420;10.952;2023-03-12T02:35:05;99997.47;;;10.71;61.15
23427;BME280;41148;45.420;10.952;2023-03-12T02:37:33;99989.78;;;10.63;60.81
23427;BME280;41148;45.420;10.952;2023-03-12T02:40:09;100004.72;;;10.67;60.90
23427;BME280;41148;45.420;10.952;2023-03-12T02:42:39;100002.06;;;10.67;60.88
23427;BME280;41148;45.420;10.952;2023-03-12T02:45:07;100000.03;;;10.74;60.55
23427;BME280;41148;45.420;10.952;2023-03-12T02:47:34;100011.69;;;10.71;60.41
23427;BME280;41148;45.420;10.952;2023-03-12T02:50:02;100004.59;;;10.70;60.81
23427;BME280;41148;45.420;10.952;2023-03-12T02:52:29;100018.47;;;10.78;60.46
23427;BME280;41148;45.420;10.952;2023-03-12T02:55:01;100017.50;;;10.81;60.11
23427;BME280;41148;45.420;10.952;2023-03-12T02:57:29;100024.38;;;10.86;59.88
23427;BME280;41148;45.420;10.952;2023-03-12T02:59:57;100015.66;;;10.83;59.31
23427;BME280;41148;45.420;10.952;2023-03-12T03:02:24;100023.66;;;10.83;59.43
23427;BME280;41148;45.420;10.952;2023-03-12T03:04:52;100032.38;;;10.86;59.13
23427;BME280;41148;45.420;10.952;2023-03-12T03:07:19;100031.00;;;10.76;59.16
23427;BME280;41148;45.420;10.952;2023-03-12T03:09:47;100031.19;;;10.72;59.19
23427;BME280;41148;45.420;10.952;2023-03-12T03:12:14;100047.34;;;10.67;59.36
23427;BME280;41148;45.420;10.952;2023-03-12T03:14:41;100046.34;;;10.70;58.70
23427;BME280;41148;45.420;10.952;2023-03-12T03:17:09;100043.59;;;10.73;58.34
23427;BME280;41148;45.420;10.952;2023-03-12T03:19:37;100062.16;;;10.74;58.36
23427;BME280;41148;45.420;10.952;2023-03-12T03:22:04;100065.69;;;10.75;57.36
23427;BME280;41148;45.420;10.952;2023-03-12T03:24:32;100068.53;;;10.70;56.76
23427;BME280;41148;45.420;10.952;2023-03-12T03:26:59;100080.63;;;10.79;56.09
23427;BME280;41148;45.420;10.952;2023-03-12T03:29:27;100084.13;;;10.81;55.32
23427;BME280;41148;45.420;10.952;2023-03-12T03:31:54;100071.69;;;10.80;54.93
23427;BME280;41148;45.420;10.952;2023-03-12T03:34:22;100068.06;;;10.82;54.48
23427;BME280;41148;45.420;10.952;2023-03-12T03:36:49;100082.34;;;10.81;54.27
23427;BME280;41148;45.420;10.952;2023-03-12T03:39:17;100085.72;;;10.85;54.12
23427;BME280;41148;45.420;10.952;2023-03-12T03:41:45;100085.38;;;10.71;53.97
23427;BME280;41148;45.420;10.952;2023-03-12T03:44:17;100088.94;;;10.71;53.96
23427;BME280;41148;45.420;10.952;2023-03-12T03:46:45;100095.53;;;10.84;53.34
23427;BME280;41148;45.420;10.952;2023-03-12T03:49:14;100104.25;;;10.88;52.99
23427;BME280;41148;45.420;10.952;2023-03-12T03:51:41;100102.81;;;10.79;53.19
23427;BME280;41148;45.420;10.952;2023-03-12T03:54:12;100100.84;;;10.84;52.74
23427;BME280;41148;45.420;10.952;2023-03-12T03:56:41;100132.13;;;10.79;53.13
23427;BME280;41148;45.420;10.952;2023-03-12T03:59:10;100119.06;;;10.73;52.81
23427;BME280;41148;45.420;10.952;2023-03-12T04:01:39;100134.75;;;10.81;52.78
23427;BME280;41148;45.420;10.952;2023-03-12T04:04:06;100125.06;;;10.78;52.63
23427;BME280;41148;45.420;10.952;2023-03-12T04:06:35;100143.03;;;10.73;52.66
23427;BME280;41148;45.420;10.952;2023-03-12T04:09:03;100134.78;;;10.79;52.75
23427;BME280;41148;45.420;10.952;2023-03-12T04:11:32;100135.03;;;10.73;52.82
23427;BME280;41148;45.420;10.952;2023-03-12T04:14:01;100152.03;;;10.69;53.09
23427;BME280;41148;45.420;10.952;2023-03-12T04:16:31;100154.19;;;10.59;53.15
23427;BME280;41148;45.420;10.952;2023-03-12T04:18:59;100146.72;;;10.69;53.19
23427;BME280;41148;45.420;10.952;2023-03-12T04:21:27;100159.97;;;10.71;52.85
23427;BME280;41148;45.420;10.952;2023-03-12T04:23:55;100154.63;;;10.72;52.98
23427;BME280;41148;45.420;10.952;2023-03-12T04:26:27;100159.09;;;10.70;53.33
23427;BME280;41148;45.420;10.952;2023-03-12T04:28:55;100156.75;;;10.63;53.13
23427;BME280;41148;45.420;10.952;2023-03-12T04:31:23;100167.81;;;10.52;53.78
23427;BME280;41148;45.420;10.952;2023-03-12T04:33:51;100170.00;;;10.64;53.73
23427;BME280;41148;45.420;10.952;2023-03-12T04:36:22;100176.22;;;10.65;53.76
23427;BME280;41148;45.420;10.952;2023-03-12T04:38:50;100184.25;;;10.63;53.93
23427;BME280;41148;45.420;10.952;2023-03-12T04:41:22;100182.22;;;10.70;53.78
23427;BME280;41148;45.420;10.952;2023-03-12T04:43:54;100186.16;;;10.59;53.78
23427;BME280;41148;45.420;10.952;2023-03-12T04:46:22;100192.41;;;10.58;53.72
23427;BME280;41148;45.420;10.952;2023-03-12T04:48:50;100196.97;;;10.55;53.99
23427;BME280;41148;45.420;10.952;2023-03-12T04:51:17;100197.97;;;10.52;54.25
23427;BME280;41148;45.420;10.952;2023-03-12T04:53:45;100200.63;;;10.52;54.18
23427;BME280;41148;45.420;10.952;2023-03-12T04:56:14;100206.75;;;10.54;54.20
23427;BME280;41148;45.420;10.952;2023-03-12T04:58:42;100208.81;;;10.46;54.39
23427;BME280;41148;45.420;10.952;2023-03-12T05:01:21;100211.00;;;10.35;54.71
23427;BME280;41148;45.420;10.952;2023-03-12T05:03:50;100219.63;;;10.42;54.70
23427;BME280;41148;45.420;10.952;2023-03-12T05:06:18;100231.25;;;10.39;54.69
23427;BME280;41148;45.420;10.952;2023-03-12T05:08:47;100231.69;;;10.27;55.20
23427;BME280;41148;45.420;10.952;2023-03-12T05:11:15;100234.28;;;10.28;55.13
23427;BME280;41148;45.420;10.952;2023-03-12T05:13:43;100247.53;;;10.30;55.11
23427;BME280;41148;45.420;10.952;2023-03-12T05:16:11;100254.72;;;10.28;55.12
23427;BME280;41148;45.420;10.952;2023-03-12T05:18:40;100252.06;;;10.28;55.21
23427;BME280;41148;45.420;10.952;2023-03-12T05:21:17;100262.53;;;10.32;55.18
23427;BME280;41148;45.420;10.952;2023-03-12T05:23:45;100251.81;;;10.36;55.06
23427;BME280;41148;45.420;10.952;2023-03-12T05:26:23;100262.59;;;10.31;54.74
23427;BME280;41148;45.420;10.952;2023-03-12T05:28:54;100264.34;;;10.32;54.91
23427;BME280;41148;45.420;10.952;2023-03-12T05:31:23;100267.28;;;10.24;55.25
23427;BME280;41148;45.420;10.952;2023-03-12T05:33:52;100276.13;;;10.25;55.35
23427;BME280;41148;45.420;10.952;2023-03-12T05:36:21;100269.34;;;10.15;55.45
23427;BME280;41148;45.420;10.952;2023-03-12T05:38:49;100275.47;;;10.17;55.70
23427;BME280;41148;45.420;10.952;2023-03-12T05:41:27;100289.53;;;10.20;55.65
23427;BME280;41148;45.420;10.952;2023-03-12T05:43:59;100268.59;;;10.10;55.93
23427;BME280;41148;45.420;10.952;2023-03-12T05:46:28;100288.97;;;10.11;56.01
23427;BME280;41148;45.420;10.952;2023-03-12T05:48:56;100281.97;;;10.08;56.12
23427;BME280;41148;45.420;10.952;2023-03-12T05:51:24;100287.69;;;9.96;56.40
23427;BME280;41148;45.420;10.952;2023-03-12T05:53:53;100288.56;;;9.96;56.69
23427;BME280;41148;45.420;10.952;2023-03-12T05:56:21;100293.97;;;9.93;56.45
23427;BME280;41148;45.420;10.952;2023-03-12T05:58:49;100294.81;;;9.94;56.71
23427;BME280;41148;45.420;10.952;2023-03-12T06:01:24;100299.31;;;9.92;57.06
23427;BME280;41148;45.420;10.952;2023-03-12T06:03:54;100293.97;;;9.93;56.69
23427;BME280;41148;45.420;10.952;2023-03-12T06:06:24;100325.53;;;10.06;56.69
23427;BME280;41148;45.420;10.952;2023-03-12T06:08:52;100310.47;;;10.04;56.70
23427;BME280;41148;45.420;10.952;2023-03-12T06:11:20;100314.88;;;10.06;56.75
23427;BME280;41148;45.420;10.952;2023-03-12T06:13:47;100327.16;;;10.10;56.47
23427;BME280;41148;45.420;10.952;2023-03-12T06:16:18;100327.44;;;10.00;56.51
23427;BME280;41148;45.420;10.952;2023-03-12T06:18:47;100313.38;;;9.97;56.76
23427;BME280;41148;45.420;10.952;2023-03-12T06:21:22;100327.41;;;10.02;56.72
23427;BME280;41148;45.420;10.952;2023-03-12T06:23:50;100332.88;;;9.97;56.87
23427;BME280;41148;45.420;10.952;2023-03-12T06:26:29;100326.44;;;10.04;56.79
23427;BME280;41148;45.420;10.952;2023-03-12T06:28:57;100351.00;;;10.14;56.48
23427;BME280;41148;45.420;10.952;2023-03-12T06:31:24;100352.72;;;10.15;56.58
23427;BME280;41148;45.420;10.952;2023-03-12T06:33:52;100354.53;;;10.13;56.78
23427;BME280;41148;45.420;10.952;2023-03-12T06:36:21;100342.91;;;10.17;56.67
23427;BME280;41148;45.420;10.952;2023-03-12T06:38:50;100335.97;;;10.12;56.75
23427;BME280;41148;45.420;10.952;2023-03-12T06:41:19;100357.88;;;10.20;56.82
23427;BME280;41148;45.420;10.952;2023-03-12T06:43:47;100367.16;;;10.64;55.59
23427;BME280;41148;45.420;10.952;2023-03-12T06:46:17;100361.53;;;11.23;54.17
23427;BME280;41148;45.420;10.952;2023-03-12T06:48:44;100359.81;;;11.70;51.98
23427;BME280;41148;45.420;10.952;2023-03-12T06:51:14;100362.41;;;12.41;50.84
23427;BME280;41148;45.420;10.952;2023-03-12T06:53:43;100363.59;;;13.38;48.77
23427;BME280;41148;45.420;10.952;2023-03-12T06:56:11;100376.91;;;13.40;47.40
23427;BME280;41148;45.420;10.952;2023-03-12T06:58:39;100369.03;;;14.14;45.72
23427;BME280;41148;45.420;10.952;2023-03-12T07:01:06;100380.75;;;15.02;43.77
23427;BME280;41148;45.420;10.952;2023-03-12T07:03:34;100381.13;;;14.41;44.65
23427;BME280;41148;45.420;10.952;2023-03-12T07:06:02;100386.28;;;14.99;44.30
23427;BME280;41148;45.420;10.952;2023-03-12T07:08:29;100381.38;;;13.79;45.61
23427;BME280;41148;45.420;10.952;2023-03-12T07:10:58;100395.38;;;13.46;46.66
23427;BME280;41148;45.420;10.952;2023-03-12T07:13:28;100384.69;;;13.26;47.59
23427;BME280;41148;45.420;10.952;2023-03-12T07:15:56;100378.03;;;13.14;47.68
23427;BME280;41148;45.420;10.952;2023-03-12T07:18:24;100372.00;;;14.08;46.14
23427;BME280;41148;45.420;10.952;2023-03-12T07:20:52;100381.38;;;15.25;43.46
23427;BME280;41148;45.420;10.952;2023-03-12T07:23:20;100387.69;;;15.41;42.75
23427;BME280;41148;45.420;10.952;2023-03-12T07:25:49;100399.69;;;14.99;43.47
23427;BME280;41148;45.420;10.952;2023-03-12T07:28:16;100397.97;;;14.98;43.50
23427;BME280;41148;45.420;10.952;2023-03-12T07:30:44;100404.34;;;15.30;42.30
23427;BME280;41148;45.420;10.952;2023-03-12T07:33:18;100419.31;;;14.82;42.82
23427;BME280;41148;45.420;10.952;2023-03-12T07:35:47;100414.25;;;14.76;43.40
23427;BME280;41148;45.420;10.952;2023-03-12T07:38:17;100425.59;;;15.00;42.38
23427;BME280;41148;45.420;10.952;2023-03-12T07:40:53;100421.94;;;14.65;43.44
23427;BME280;41148;45.420;10.952;2023-03-12T07:43:21;100420.72;;;14.35;43.87
23427;BME280;41148;45.420;10.952;2023-03-12T07:45:52;100433.09;;;13.81;44.90
23427;BME280;41148;45.420;10.952;2023-03-12T07:48:19;100444.72;;;13.39;46.27
23427;BME280;41148;45.420;10.952;2023-03-12T07:50:47;100458.38;;;13.11;47.11
23427;BME280;41148;45.420;10.952;2023-03-12T07:53:15;100448.69;;;13.08;47.30
23427;BME280;41148;45.420;10.952;2023-03-12T07:56:05;100449.38;;;13.13;47.09
23427;BME280;41148;45.420;10.952;2023-03-12T07:58:32;100459.38;;;13.08;46.99
23427;BME280;41148;45.420;10.952;2023-03-12T08:01:03;100461.66;;;12.97;46.59
23427;BME280;41148;45.420;10.952;2023-03-12T08:03:31;100437.97;;;12.88;46.44
23427;BME280;41148;45.420;10.952;2023-03-12T08:06:01;100453.13;;;12.87;46.59
23427;BME280;41148;45.420;10.952;2023-03-12T08:08:30;100444.66;;;12.98;46.17
23427;BME280;41148;45.420;10.952;2023-03-12T08:10:59;100447.44;;;13.17;46.51
23427;BME280;41148;45.420;10.952;2023-03-12T08:13:29;100455.25;;;13.43;46.26
23427;BME280;41148;45.420;10.952;2023-03-12T08:15:57;100455.75;;;13.31;45.76
23427;BME280;41148;45.420;10.952;2023-03-12T08:18:25;100449.31;;;13.15;46.71
23427;BME280;41148;45.420;10.952;2023-03-12T08:20:53;100456.69;;;13.30;46.26
23427;BME280;41148;45.420;10.952;2023-03-12T08:23:23;100464.00;;;13.47;45.65
23427;BME280;41148;45.420;10.952;2023-03-12T08:25:51;100469.41;;;13.25;45.51
23427;BME280;41148;45.420;10.952;2023-03-12T08:28:21;100461.00;;;13.55;44.94
23427;BME280;41148;45.420;10.952;2023-03-12T08:30:53;100476.97;;;13.97;44.57
23427;BME280;41148;45.420;10.952;2023-03-12T08:33:21;100474.41;;;14.33;43.42
23427;BME280;41148;45.420;10.952;2023-03-12T08:35:49;100467.94;;;14.18;43.35
23427;BME280;41148;45.420;10.952;2023-03-12T08:38:17;100472.56;;;14.15;43.68
23427;BME280;41148;45.420;10.952;2023-03-12T08:40:44;100485.63;;;14.41;43.34
23427;BME280;41148;45.420;10.952;2023-03-12T08:43:12;100488.72;;;15.07;41.68
23427;BME280;41148;45.420;10.952;2023-03-12T08:45:39;100489.03;;;15.01;41.51
23427;BME280;41148;45.420;10.952;2023-03-12T08:48:07;100502.28;;;14.68;42.04
23427;BME280;41148;45.420;10.952;2023-03-12T08:50:34;100488.47;;;14.57;42.46
23427;BME280;41148;45.420;10.952;2023-03-12T08:53:02;100494.63;;;14.40;42.86
23427;BME280;41148;45.420;10.952;2023-03-12T08:55:29;100493.59;;;14.43;42.35
23427;BME280;41148;45.420;10.952;2023-03-12T08:57:57;100510.06;;;14.92;41.52
23427;BME280;41148;45.420;10.952;2023-03-12T09:00:24;100503.50;;;15.16;41.10
23427;BME280;41148;45.420;10.952;2023-03-12T09:02:51;100499.22;;;15.65;40.35
23427;BME280;41148;45.420;10.952;2023-03-12T09:05:20;100514.13;;;15.88;39.45
23427;BME280;41148;45.420;10.952;2023-03-12T09:07:47;100506.91;;;16.06;38.90
23427;BME280;41148;45.420;10.952;2023-03-12T09:10:16;100510.47;;;16.07;38.13
23427;BME280;41148;45.420;10.952;2023-03-12T09:12:47;100514.47;;;16.64;37.50
23427;BME280;41148;45.420;10.952;2023-03-12T09:15:14;100502.91;;;16.46;37.83
23427;BME280;41148;45.420;10.952;2023-03-12T09:17:42;100491.63;;;16.24;37.78
23427;BME280;41148;45.420;10.952;2023-03-12T09:20:10;100506.63;;;15.78;38.93
23427;BME280;41148;45.420;10.952;2023-03-12T09:22:41;100496.16;;;16.06;38.32
23427;BME280;41148;45.420;10.952;2023-03-12T09:25:09;100502.91;;;15.80;38.59
23427;BME280;41148;45.420;10.952;2023-03-12T09:27:38;100518.56;;;15.72;38.46
23427;BME280;41148;45.420;10.952;2023-03-12T09:30:10;100513.22;;;15.36;39.08
23427;BME280;41148;45.420;10.952;2023-03-12T09:32:38;100531.84;;;15.39;38.82
23427;BME280;41148;45.420;10.952;2023-03-12T09:35:07;100535.47;;;15.21;39.73
23427;BME280;41148;45.420;10.952;2023-03-12T09:37:35;100535.84;;;14.94;39.96
23427;BME280;41148;45.420;10.952;2023-03-12T09:40:04;100537.66;;;14.94;39.86
23427;BME280;41148;45.420;10.952;2023-03-12T09:42:45;100549.50;;;14.89;39.96
23427;BME280;41148;45.420;10.952;2023-03-12T09:45:25;100549.56;;;15.07;39.46
23427;BME280;41148;45.420;10.952;2023-03-12T09:47:59;100551.09;;;14.94;39.30
23427;BME280;41148;45.420;10.952;2023-03-12T09:50:31;100557.31;;;14.56;39.39
23427;BME280;41148;45.420;10.952;2023-03-12T09:53:03;100550.97;;;14.78;38.79
23427;BME280;41148;45.420;10.952;2023-03-12T09:55:41;100553.56;;;14.79;38.73
23427;BME280;41148;45.420;10.952;2023-03-12T10:00:45;100555.13;;;14.46;37.94
23427;BME280;41148;45.420;10.952;2023-03-12T10:03:20;100561.00;;;14.54;38.18
23427;BME280;41148;45.420;10.952;2023-03-12T10:08:47;100552.34;;;14.68;38.02
23427;BME280;41148;45.420;10.952;2023-03-12T10:17:41;100546.59;;;14.36;37.33
23427;BME280;41148;45.420;10.952;2023-03-12T10:26:05;100551.78;;;14.41;37.98
23427;BME280;41148;45.420;10.952;2023-03-12T10:28:40;100555.72;;;14.52;38.23
23427;BME280;41148;45.420;10.952;2023-03-12T10:31:17;100554.25;;;14.45;38.79
23427;BME280;41148;45.420;10.952;2023-03-12T10:33:51;100566.75;;;14.65;38.18
23427;BME280;41148;45.420;10.952;2023-03-12T10:36:44;100559.78;;;14.22;38.16
23427;BME280;41148;45.420;10.952;2023-03-12T10:39:15;100551.63;;;14.04;38.29
23427;BME280;41148;45.420;10.952;2023-03-12T10:41:45;100563.09;;;14.27;38.58
23427;BME280;41148;45.420;10.952;2023-03-12T10:44:20;100544.91;;;14.15;38.82
23427;BME280;41148;45.420;10.952;2023-03-12T10:49:38;100551.25;;;14.32;39.05
23427;BME280;41148;45.420;10.952;2023-03-12T10:52:20;100567.03;;;14.59;39.20
23427;BME280;41148;45.420;10.952;2023-03-12T10:54:50;100558.25;;;14.55;38.93
23427;BME280;41148;45.420;10.952;2023-03-12T10:57:19;100551.19;;;14.34;39.54
23427;BME280;41148;45.420;10.952;2023-03-12T10:59:47;100568.56;;;14.44;39.71
23427;BME280;41148;45.420;10.952;2023-03-12T11:02:30;100552.34;;;14.49;39.64
23427;BME280;41148;45.420;10.952;2023-03-12T11:05:00;100560.59;;;14.63;40.05
23427;BME280;41148;45.420;10.952;2023-03-12T11:07:33;100551.09;;;14.75;39.98
23427;BME280;41148;45.420;10.952;2023-03-12T11:12:57;100561.09;;;14.71;40.43
23427;BME280;41148;45.420;10.952;2023-03-12T11:15:36;100572.63;;;14.92;40.14
23427;BME280;41148;45.420;10.952;2023-03-12T11:18:18;100558.59;;;15.04;40.18
23427;BME280;41148;45.420;10.952;2023-03-12T11:20:49;100560.94;;;14.93;39.92
23427;BME280;41148;45.420;10.952;2023-03-12T11:23:24;100574.88;;;14.82;39.90
23427;BME280;41148;45.420;10.952;2023-03-12T11:25:56;100561.53;;;14.81;39.68
23427;BME280;41148;45.420;10.952;2023-03-12T11:28:36;100563.06;;;14.86;40.17
23427;BME280;41148;45.420;10.952;2023-03-12T11:31:08;100565.09;;;15.00;40.20
23427;BME280;41148;45.420;10.952;2023-03-12T11:33:37;100575.28;;;15.11;39.25
23427;BME280;41148;45.420;10.952;2023-03-12T11:38:44;100564.97;;;15.21;39.60
23427;BME280;41148;45.420;10.952;2023-03-12T11:44:26;100558.94;;;14.98;39.61
23427;BME280;41148;45.420;10.952;2023-03-12T11:52:31;100574.00;;;14.82;39.40
23427;BME280;41148;45.420;10.952;2023-03-12T11:55:34;100569.00;;;14.93;39.21
23427;BME280;41148;45.420;10.952;2023-03-12T12:01:31;100584.28;;;14.72;39.43
23427;BME280;41148;45.420;10.952;2023-03-12T12:06:51;100575.59;;;14.86;39.23
23427;BME280;41148;45.420;10.952;2023-03-12T12:09:47;100571.91;;;15.07;39.95
23427;BME280;41148;45.420;10.952;2023-03-12T12:12:53;100567.53;;;14.86;40.30
23427;BME280;41148;45.420;10.952;2023-03-12T12:21:12;100560.94;;;15.12;40.53
23427;BME280;41148;45.420;10.952;2023-03-12T12:26:12;100542.16;;;14.93;40.95
23427;BME280;41148;45.420;10.952;2023-03-12T12:31:58;100561.25;;;15.06;40.12
23427;BME280;41148;45.420;10.952;2023-03-12T12:37:37;100558.56;;;15.06;40.77
23427;BME280;41148;45.420;10.952;2023-03-12T12:40:17;100541.66;;;14.85;41.28
23427;BME280;41148;45.420;10.952;2023-03-12T12:43:02;100549.78;;;15.02;41.57
23427;BME280;41148;45.420;10.952;2023-03-12T12:45:35;100540.19;;;15.15;40.95
23427;BME280;41148;45.420;10.952;2023-03-12T12:48:12;100531.31;;;14.96;40.56
23427;BME280;41148;45.420;10.952;2023-03-12T12:50:43;100536.19;;;15.05;41.88
23427;BME280;41148;45.420;10.952;2023-03-12T12:53:39;100535.00;;;14.75;41.28
23427;BME280;41148;45.420;10.952;2023-03-12T13:01:53;100537.31;;;15.01;42.11
23427;BME280;41148;45.420;10.952;2023-03-12T13:04:37;100536.00;;;15.10;41.86
23427;BME280;41148;45.420;10.952;2023-03-12T13:09:39;100538.31;;;15.17;41.38
23427;BME280;41148;45.420;10.952;2023-03-12T13:12:28;100540.53;;;15.27;41.81
23427;BME280;41148;45.420;10.952;2023-03-12T13:14:58;100528.56;;;15.15;41.36
23427;BME280;41148;45.420;10.952;2023-03-12T13:17:33;100518.94;;;15.11;41.93
23427;BME280;41148;45.420;10.952;2023-03-12T13:20:14;100522.00;;;15.03;41.85
23427;BME280;41148;45.420;10.952;2023-03-12T13:30:59;100547.22;;;15.18;41.44
23427;BME280;41148;45.420;10.952;2023-03-12T13:33:50;100542.59;;;15.39;41.30
23427;BME280;41148;45.420;10.952;2023-03-12T13:36:19;100548.53;;;15.45;40.92
23427;BME280;41148;45.420;10.952;2023-03-12T13:38:56;100543.53;;;15.38;41.36
23427;BME280;41148;45.420;10.952;2023-03-12T13:47:21;100554.50;;;15.33;41.34
23427;BME280;41148;45.420;10.952;2023-03-12T13:50:07;100562.00;;;15.44;40.59
23427;BME280;41148;45.420;10.952;2023-03-12T13:52:47;100566.91;;;15.36;41.15
23427;BME280;41148;45.420;10.952;2023-03-12T13:55:29;100568.81;;;15.15;41.13
23427;BME280;41148;45.420;10.952;2023-03-12T13:58:14;100549.56;;;15.07;41.52
23427;BME280;41148;45.420;10.952;2023-03-12T14:00:55;100549.75;;;15.21;41.38
23427;BME280;41148;45.420;10.952;2023-03-12T14:03:26;100544.16;;;15.26;41.22
23427;BME280;41148;45.420;10.952;2023-03-12T14:05:59;100556.78;;;15.24;40.91
23427;BME280;41148;45.420;10.952;2023-03-12T14:17:15;100549.13;;;15.33;40.89
23427;BME280;41148;45.420;10.952;2023-03-12T14:19:50;100571.78;;;15.28;41.13
23427;BME280;41148;45.420;10.952;2023-03-12T14:22:19;100549.13;;;15.33;41.21
23427;BME280;41148;45.420;10.952;2023-03-12T14:24:53;100550.25;;;15.29;41.44
23427;BME280;41148;45.420;10.952;2023-03-12T14:27:26;100534.13;;;15.29;41.19
23427;BME280;41148;45.420;10.952;2023-03-12T14:30:10;100548.75;;;15.41;41.18
23427;BME280;41148;45.420;10.952;2023-03-12T14:32:39;100559.94;;;15.32;41.49
23427;BME280;41148;45.420;10.952;2023-03-12T14:35:27;100532.06;;;15.17;41.52
23427;BME280;41148;45.420;10.952;2023-03-12T14:38:05;100554.81;;;15.27;42.29